Time;durP1;ratioP1;P1;durP2;ratioP2;P2;SDS_P1;SDS_P2;PMS_P1;PMS_P2;Temp;Humidity;BMP_temperature;BMP_pressure;BME280_temperature;BME280_humidity;BME280_pressure;Samples;Min_cycle;Max_cycle;Signal;HPM_P1;HPM_P2
2023/08/12 00:01:40;;;;;;;3.63;1.83;;;19.50;99.90;;;;;;5054317;28;20055;-73
2023/08/12 00:04:06;;;;;;;3.85;2.17;;;19.50;99.90;;;;;;5056483;28;20045;-73
2023/08/12 00:06:32;;;;;;;3.35;2.10;;;19.40;99.90;;;;;;5022356;28;20167;-73
2023/08/12 00:08:57;;;;;;;3.33;1.90;;;19.50;99.90;;;;;;5038733;28;20051;-73
2023/08/12 00:11:23;;;;;;;3.40;2.10;;;19.50;99.90;;;;;;5056979;28;20071;-73
2023/08/12 00:13:49;;;;;;;4.40;1.90;;;19.50;99.90;;;;;;5056328;28;20045;-73
2023/08/12 00:16:14;;;;;;;3.30;2.10;;;19.50;99.90;;;;;;5056958;28;20465;-74
2023/08/12 00:18:40;;;;;;;5.47;2.17;;;19.50;99.90;;;;;;5038588;28;20049;-73
2023/08/12 00:21:09;;;;;;;5.00;2.67;;;19.50;99.90;;;;;;5056894;28;20381;-73
2023/08/12 00:23:42;;;;;;;5.95;2.95;;;19.50;99.90;;;;;;5056100;28;20049;-74
2023/08/12 00:26:08;;;;;;;5.90;3.50;;;19.50;99.90;;;;;;5056998;28;20359;-73
2023/08/12 00:28:34;;;;;;;7.00;3.30;;;19.50;99.90;;;;;;5038763;28;20052;-73
2023/08/12 00:31:00;;;;;;;7.32;3.53;;;19.40;99.90;;;;;;5055725;28;20053;-73
2023/08/12 00:33:26;;;;;;;7.18;3.92;;;19.40;99.90;;;;;;5055923;28;20092;-73
2023/08/12 00:35:51;;;;;;;6.43;4.00;;;19.40;99.90;;;;;;5037841;28;20132;-73
2023/08/12 00:38:17;;;;;;;6.95;3.80;;;19.40;99.90;;;;;;5038182;28;20053;-73
2023/08/12 00:40:43;;;;;;;6.07;3.70;;;19.40;99.90;;;;;;5055773;28;20048;-73
2023/08/12 00:43:09;;;;;;;5.88;4.05;;;19.40;99.90;;;;;;5055898;28;20041;-73
2023/08/12 00:45:35;;;;;;;9.00;4.65;;;19.40;99.90;;;;;;5055452;28;20486;-74
2023/08/12 00:48:02;;;;;;;9.57;5.03;;;19.30;99.90;;;;;;5056295;28;20059;-73
2023/08/12 00:50:28;;;;;;;9.38;5.45;;;19.30;99.90;;;;;;5038179;28;20088;-73
2023/08/12 00:52:54;;;;;;;9.20;5.00;;;19.30;99.90;;;;;;5038384;28;20095;-73
2023/08/12 00:55:21;;;;;;;9.05;4.85;;;19.30;99.90;;;;;;5055315;28;20055;-73
2023/08/12 00:57:47;;;;;;;9.65;4.70;;;19.30;99.90;;;;;;5055597;28;20053;-73
2023/08/12 01:00:14;;;;;;;8.30;5.10;;;19.30;99.90;;;;;;5054310;28;20045;-74
2023/08/12 01:02:44;;;;;;;8.60;5.15;;;19.30;99.90;;;;;;5037951;28;20130;-73
2023/08/12 01:05:10;;;;;;;9.60;5.45;;;19.30;99.90;;;;;;5055370;28;20053;-73
2023/08/12 01:07:35;;;;;;;8.77;5.25;;;19.30;99.90;;;;;;5056199;28;20374;-73
2023/08/12 01:10:01;;;;;;;9.50;5.20;;;19.30;99.90;;;;;;5055332;28;20132;-73
2023/08/12 01:12:33;;;;;;;8.10;5.00;;;19.30;99.90;;;;;;5037517;28;20045;-73
2023/08/12 01:15:08;;;;;;;7.47;5.28;;;19.30;99.90;;;;;;5037563;28;20049;-73
2023/08/12 01:17:38;;;;;;;7.55;5.25;;;19.30;99.90;;;;;;5056392;28;20371;-73
2023/08/12 01:20:09;;;;;;;7.43;5.05;;;19.30;99.90;;;;;;5054235;28;20124;-73
2023/08/12 01:22:41;;;;;;;9.15;5.63;;;19.30;99.90;;;;;;5055153;28;20045;-73
2023/08/12 01:25:08;;;;;;;9.27;5.70;;;19.30;99.90;;;;;;5055334;28;20048;-73
2023/08/12 01:27:37;;;;;;;8.77;6.10;;;19.30;99.90;;;;;;5055037;28;20362;-73
2023/08/12 01:30:05;;;;;;;9.13;5.95;;;19.20;99.90;;;;;;5054930;28;20033;-73
2023/08/12 01:32:37;;;;;;;7.75;5.07;;;19.20;99.90;;;;;;5036811;28;20041;-73
2023/08/12 01:35:20;;;;;;;9.38;5.78;;;19.20;99.90;;;;;;5054764;28;20128;-74
2023/08/12 01:37:49;;;;;;;9.13;5.95;;;19.20;99.90;;;;;;5054883;28;20079;-73
2023/08/12 01:40:16;;;;;;;9.20;5.97;;;19.20;99.90;;;;;;5054642;28;20041;-73
2023/08/12 01:42:42;;;;;;;10.40;5.72;;;19.20;99.90;;;;;;5055083;28;20049;-73
2023/08/12 01:45:08;;;;;;;8.88;5.63;;;19.20;99.90;;;;;;5054726;28;20052;-73
2023/08/12 01:47:34;;;;;;;8.77;5.63;;;19.20;99.90;;;;;;5054568;28;20049;-73
2023/08/12 01:50:00;;;;;;;8.68;5.65;;;19.20;99.90;;;;;;5054447;28;20045;-73
2023/08/12 01:52:25;;;;;;;9.00;6.32;;;19.20;99.90;;;;;;5054512;28;20107;-73
2023/08/12 01:54:51;;;;;;;9.98;5.70;;;19.20;99.90;;;;;;5036679;28;20088;-73
2023/08/12 01:57:17;;;;;;;7.85;5.75;;;19.20;99.90;;;;;;5055569;28;20060;-74
2023/08/12 01:59:46;;;;;;;9.82;5.55;;;19.20;99.90;;;;;;5054254;28;20037;-73
2023/08/12 02:02:12;;;;;;;7.97;5.57;;;19.20;99.90;;;;;;5037074;28;20055;-73
2023/08/12 02:04:39;;;;;;;10.95;5.97;;;19.10;99.90;;;;;;5054341;28;20088;-73
2023/08/12 02:07:05;;;;;;;8.50;5.32;;;19.20;99.90;;;;;;5054274;28;20397;-73
2023/08/12 02:09:30;;;;;;;9.70;5.85;;;19.20;99.90;;;;;;5054197;28;20052;-73
2023/08/12 02:11:56;;;;;;;8.32;5.53;;;19.10;99.90;;;;;;5054159;28;20128;-73
2023/08/12 02:14:22;;;;;;;8.68;5.10;;;19.20;99.90;;;;;;5036563;28;20438;-73
2023/08/12 02:16:48;;;;;;;7.50;4.85;;;19.20;99.90;;;;;;5054095;28;20132;-73
2023/08/12 02:19:14;;;;;;;9.00;5.63;;;19.10;99.90;;;;;;5036424;28;20083;-73
2023/08/12 02:21:40;;;;;;;8.73;5.47;;;19.10;99.90;;;;;;5054058;28;20132;-73
2023/08/12 02:24:06;;;;;;;9.30;5.15;;;19.10;99.90;;;;;;5053787;28;20195;-73
2023/08/12 02:26:32;;;;;;;9.48;5.70;;;19.10;99.90;;;;;;5053466;28;20084;-73
2023/08/12 02:28:58;;;;;;;8.68;5.30;;;19.10;99.90;;;;;;5053796;28;20505;-73
2023/08/12 02:31:24;;;;;;;8.27;5.68;;;19.10;99.90;;;;;;5054379;28;20049;-73
2023/08/12 02:33:50;;;;;;;10.50;5.47;;;19.10;99.90;;;;;;5053635;28;20110;-73
2023/08/12 02:36:16;;;;;;;9.13;6.43;;;19.10;99.90;;;;;;5054569;28;20040;-73
2023/08/12 02:38:42;;;;;;;9.02;5.80;;;19.10;99.90;;;;;;5054101;28;20478;-73
2023/08/12 02:41:07;;;;;;;10.15;6.55;;;19.10;99.90;;;;;;5035818;28;20044;-73
2023/08/12 02:43:33;;;;;;;13.18;7.07;;;19.10;99.90;;;;;;5053340;28;20053;-73
2023/08/12 02:45:59;;;;;;;12.05;6.90;;;19.20;99.90;;;;;;5035814;28;20045;-73
2023/08/12 02:48:24;;;;;;;9.82;6.53;;;19.20;99.90;;;;;;5053598;28;20099;-73
2023/08/12 02:50:50;;;;;;;9.63;7.15;;;19.20;99.90;;;;;;5053615;28;20060;-73
2023/08/12 02:53:17;;;;;;;10.68;6.95;;;19.20;99.90;;;;;;5053526;28;20052;-74
2023/08/12 02:55:44;;;;;;;11.30;6.72;;;19.20;99.90;;;;;;5036265;28;20132;-73
2023/08/12 02:58:10;;;;;;;11.10;7.47;;;19.10;99.90;;;;;;5053815;28;20096;-73
2023/08/12 03:00:36;;;;;;;12.25;7.47;;;19.10;99.90;;;;;;5035913;28;20089;-73
2023/08/12 03:03:01;;;;;;;12.15;6.93;;;19.10;99.90;;;;;;5036199;28;20470;-73
2023/08/12 03:05:27;;;;;;;10.30;6.88;;;19.10;99.90;;;;;;5054209;28;20418;-73
2023/08/12 03:07:53;;;;;;;9.98;7.10;;;19.10;99.90;;;;;;5036086;28;20087;-73
2023/08/12 03:10:19;;;;;;;12.13;7.07;;;19.20;99.90;;;;;;5053667;28;20048;-73
2023/08/12 03:12:44;;;;;;;10.95;7.18;;;19.20;99.90;;;;;;5053684;28;20041;-73
2023/08/12 03:15:11;;;;;;;10.13;6.55;;;19.20;99.90;;;;;;5053191;28;20049;-72
2023/08/12 03:17:38;;;;;;;10.10;6.75;;;19.20;99.90;;;;;;5052495;28;20398;-73
2023/08/12 03:20:06;;;;;;;10.32;6.53;;;19.20;99.90;;;;;;5053125;28;20076;-73
2023/08/12 03:22:31;;;;;;;9.20;6.70;;;19.30;99.90;;;;;;5053132;28;20049;-73
2023/08/12 03:24:57;;;;;;;9.13;6.10;;;19.20;99.90;;;;;;5053545;28;20056;-73
2023/08/12 03:27:23;;;;;;;11.23;6.53;;;19.20;99.90;;;;;;5053593;28;20556;-73
2023/08/12 03:29:48;;;;;;;8.77;6.60;;;19.30;99.90;;;;;;5053540;28;20041;-73
2023/08/12 03:32:14;;;;;;;11.60;6.90;;;19.30;99.90;;;;;;5035374;28;20087;-73
2023/08/12 03:34:39;;;;;;;9.65;6.47;;;19.30;99.90;;;;;;5053081;28;20053;-73
2023/08/12 03:37:05;;;;;;;12.35;6.63;;;19.30;99.90;;;;;;5037830;28;20114;-73
2023/08/12 03:39:31;;;;;;;9.05;6.38;;;19.20;99.90;;;;;;5057269;28;20052;-72
2023/08/12 03:41:57;;;;;;;11.38;6.20;;;19.20;99.90;;;;;;5057266;28;20119;-73
2023/08/12 03:44:22;;;;;;;10.52;6.90;;;19.20;99.90;;;;;;5056960;28;20053;-72
2023/08/12 03:46:48;;;;;;;10.48;6.97;;;19.20;99.90;;;;;;5057229;28;20049;-72
2023/08/12 03:49:14;;;;;;;9.20;6.80;;;19.20;99.90;;;;;;5056853;28;20037;-73
2023/08/12 03:51:39;;;;;;;9.38;6.30;;;19.10;99.90;;;;;;5056829;28;20049;-73
2023/08/12 03:54:05;;;;;;;9.18;5.75;;;19.10;99.90;;;;;;5056768;28;20053;-73
2023/08/12 03:56:31;;;;;;;10.90;6.80;;;19.10;99.90;;;;;;5038767;28;20065;-73
2023/08/12 03:58:57;;;;;;;9.48;6.18;;;19.00;99.90;;;;;;5056649;28;20048;-72
2023/08/12 04:01:23;;;;;;;9.75;5.85;;;19.00;99.90;;;;;;5039922;28;20370;-73
2023/08/12 04:03:49;;;;;;;10.98;6.57;;;19.10;99.90;;;;;;5056615;28;20056;-73
2023/08/12 04:06:15;;;;;;;9.15;6.75;;;19.00;99.90;;;;;;5038939;28;20580;-73
2023/08/12 04:08:40;;;;;;;10.85;7.13;;;19.00;99.90;;;;;;5038871;28;20080;-73
2023/08/12 04:11:06;;;;;;;10.07;6.40;;;19.00;99.90;;;;;;5056517;28;20041;-73
2023/08/12 04:13:32;;;;;;;10.20;6.60;;;19.00;99.90;;;;;;5038846;28;20508;-73
2023/08/12 04:15:57;;;;;;;9.95;6.22;;;19.00;99.90;;;;;;5056563;28;20478;-72
2023/08/12 04:18:23;;;;;;;10.57;7.25;;;19.00;99.90;;;;;;5038917;28;20470;-73
2023/08/12 04:20:50;;;;;;;9.75;6.30;;;19.00;99.90;;;;;;5037720;28;20396;-73
2023/08/12 04:23:17;;;;;;;10.98;7.05;;;19.00;99.90;;;;;;5056042;28;20053;-73
2023/08/12 04:25:46;;;;;;;10.32;6.70;;;19.00;99.90;;;;;;5056023;28;20528;-72
2023/08/12 04:28:13;;;;;;;10.82;6.80;;;18.90;99.90;;;;;;5056170;28;20045;-72
2023/08/12 04:30:46;;;;;;;12.27;7.25;;;18.90;99.90;;;;;;5038682;28;20409;-73
2023/08/12 04:33:13;;;;;;;11.57;6.68;;;18.90;99.90;;;;;;5038866;28;20045;-73
2023/08/12 04:35:40;;;;;;;11.43;7.50;;;18.90;99.90;;;;;;5056023;28;20049;-72
2023/08/12 04:38:05;;;;;;;10.50;7.35;;;19.00;99.90;;;;;;5038270;28;20049;-72
2023/08/12 04:40:31;;;;;;;10.80;7.45;;;19.00;99.90;;;;;;5056124;28;20133;-72
2023/08/12 04:42:58;;;;;;;12.48;7.72;;;18.90;99.90;;;;;;5056710;28;20409;-73
2023/08/12 04:45:24;;;;;;;13.18;7.90;;;19.00;99.90;;;;;;5055846;28;20049;-73
2023/08/12 04:47:50;;;;;;;12.25;8.32;;;19.00;99.90;;;;;;5038093;28;20053;-73
2023/08/12 04:50:16;;;;;;;10.57;7.60;;;19.00;99.90;;;;;;5056100;28;20076;-72
2023/08/12 04:52:41;;;;;;;13.20;7.80;;;19.00;99.90;;;;;;5055751;28;20056;-72
2023/08/12 04:55:07;;;;;;;11.38;8.30;;;19.10;99.90;;;;;;5055806;28;20138;-72
2023/08/12 04:57:33;;;;;;;13.15;8.80;;;19.10;99.90;;;;;;5055098;28;20057;-73
2023/08/12 04:59:59;;;;;;;14.43;8.38;;;19.00;99.90;;;;;;5037776;28;20484;-72
2023/08/12 05:02:24;;;;;;;13.05;8.73;;;19.10;99.90;;;;;;5037936;28;20041;-72
2023/08/12 05:04:51;;;;;;;13.85;8.77;;;19.10;99.90;;;;;;5055403;28;20047;-73
2023/08/12 05:07:17;;;;;;;10.10;8.18;;;19.10;99.90;;;;;;5038660;28;20095;-73
2023/08/12 05:09:44;;;;;;;12.05;8.20;;;19.10;99.90;;;;;;5037635;28;20053;-72
2023/08/12 05:12:11;;;;;;;13.77;10.30;;;19.10;99.90;;;;;;5055379;28;20049;-73
2023/08/12 05:14:37;;;;;;;13.68;9.02;;;19.10;99.90;;;;;;5055289;28;20132;-72
2023/08/12 05:17:03;;;;;;;14.13;9.25;;;19.10;99.90;;;;;;5055755;28;20135;-72
2023/08/12 05:19:28;;;;;;;16.63;9.70;;;19.10;99.90;;;;;;5055692;28;20128;-72
2023/08/12 05:21:54;;;;;;;13.63;9.40;;;19.10;99.90;;;;;;5055159;28;20099;-72
2023/08/12 05:24:20;;;;;;;14.77;9.82;;;19.10;99.90;;;;;;5054984;28;20053;-72
2023/08/12 05:26:46;;;;;;;14.88;9.23;;;19.10;99.90;;;;;;5037454;28;20045;-72
2023/08/12 05:29:12;;;;;;;13.25;10.00;;;19.20;99.90;;;;;;5055046;28;20109;-72
2023/08/12 05:31:38;;;;;;;14.38;9.65;;;19.20;99.90;;;;;;5054959;28;20049;-72
2023/08/12 05:34:04;;;;;;;15.55;10.35;;;19.20;99.90;;;;;;5037206;28;20477;-72
2023/08/12 05:36:29;;;;;;;17.13;11.13;;;19.20;99.90;;;;;;5054786;28;20094;-72
2023/08/12 05:38:55;;;;;;;17.40;10.60;;;19.20;99.90;;;;;;5037174;28;20128;-72
2023/08/12 05:41:21;;;;;;;18.42;10.85;;;19.30;99.90;;;;;;5054465;28;20052;-72
2023/08/12 05:43:48;;;;;;;18.13;11.38;;;19.30;99.90;;;;;;5054684;28;20127;-72
2023/08/12 05:46:14;;;;;;;16.27;11.15;;;19.30;99.90;;;;;;5037881;28;20088;-72
2023/08/12 05:48:39;;;;;;;19.33;12.40;;;19.40;99.90;;;;;;5054668;28;20190;-72
2023/08/12 05:51:05;;;;;;;17.38;12.20;;;19.40;99.90;;;;;;5054365;28;20172;-73
2023/08/12 05:53:32;;;;;;;17.77;11.75;;;19.50;99.90;;;;;;5055339;28;20355;-72
2023/08/12 05:55:57;;;;;;;15.75;11.43;;;19.60;99.90;;;;;;5033189;28;20057;-72
2023/08/12 05:58:23;;;;;;;18.90;12.32;;;19.60;99.90;;;;;;5033691;28;20060;-72
2023/08/12 06:00:50;;;;;;;18.08;11.77;;;19.60;99.90;;;;;;5034558;28;20041;-72
2023/08/12 06:03:15;;;;;;;17.33;12.05;;;19.60;99.90;;;;;;5034416;28;20095;-72
2023/08/12 06:05:44;;;;;;;19.25;12.27;;;19.70;99.90;;;;;;5034426;28;20045;-72
2023/08/12 06:08:10;;;;;;;16.63;12.10;;;19.80;99.90;;;;;;5034909;28;20046;-71
2023/08/12 06:10:35;;;;;;;19.42;12.65;;;19.90;99.90;;;;;;5033337;28;20056;-72
2023/08/12 06:13:01;;;;;;;17.92;12.77;;;19.90;99.90;;;;;;5033148;28;20080;-72
2023/08/12 06:15:27;;;;;;;17.92;12.15;;;20.10;99.90;;;;;;5033239;28;20124;-73
2023/08/12 06:17:52;;;;;;;17.65;12.25;;;20.30;99.90;;;;;;5033943;28;20081;-71
2023/08/12 06:20:18;;;;;;;18.77;12.88;;;20.40;99.90;;;;;;5034928;28;20037;-71
2023/08/12 06:22:44;;;;;;;17.02;13.02;;;20.50;99.90;;;;;;5033447;28;20048;-71
2023/08/12 06:25:09;;;;;;;18.40;13.18;;;20.60;99.90;;;;;;5033864;28;20491;-72
2023/08/12 06:27:35;;;;;;;19.30;13.52;;;20.60;99.90;;;;;;5033174;28;20067;-71
2023/08/12 06:30:01;;;;;;;20.50;13.82;;;20.60;99.90;;;;;;5033701;28;20048;-72
2023/08/12 06:32:26;;;;;;;18.23;13.43;;;20.60;99.90;;;;;;5034730;28;20091;-72
2023/08/12 06:34:52;;;;;;;19.17;13.55;;;20.60;99.90;;;;;;5034423;28;20124;-71
2023/08/12 06:37:18;;;;;;;18.48;13.20;;;20.60;99.90;;;;;;5033902;28;20099;-71
2023/08/12 06:39:43;;;;;;;19.83;13.40;;;20.50;99.90;;;;;;5034396;28;20050;-71
2023/08/12 06:42:09;;;;;;;19.20;14.18;;;20.50;99.90;;;;;;5034378;28;20502;-72
2023/08/12 06:44:34;;;;;;;19.80;14.38;;;20.50;99.90;;;;;;5032624;28;20056;-72
2023/08/12 06:47:00;;;;;;;19.23;14.15;;;20.40;99.90;;;;;;5033713;28;20049;-72
2023/08/12 06:49:26;;;;;;;21.63;14.48;;;20.40;99.90;;;;;;5033734;28;20048;-72
2023/08/12 06:51:51;;;;;;;20.13;14.20;;;20.40;99.90;;;;;;5034458;28;20042;-70
2023/08/12 06:54:17;;;;;;;20.38;13.48;;;20.40;99.90;;;;;;5033589;28;20429;-70
2023/08/12 06:56:43;;;;;;;17.02;12.98;;;20.40;99.90;;;;;;5046263;28;20136;-70
2023/08/12 06:59:09;;;;;;;19.25;13.13;;;20.40;99.90;;;;;;5035550;28;20057;-70
2023/08/12 07:01:34;;;;;;;19.45;13.55;;;20.40;99.90;;;;;;5053489;28;20076;-70
2023/08/12 07:04:00;;;;;;;22.30;14.10;;;20.40;99.90;;;;;;5053698;28;20402;-71
2023/08/12 07:06:26;;;;;;;18.23;13.50;;;20.40;99.90;;;;;;5053921;28;20474;-70
2023/08/12 07:08:52;;;;;;;19.92;14.38;;;20.40;99.90;;;;;;5053395;28;20064;-70
2023/08/12 07:11:17;;;;;;;19.55;13.13;;;20.40;99.90;;;;;;5053963;28;20045;-70
2023/08/12 07:13:46;;;;;;;18.35;13.25;;;20.30;99.90;;;;;;5040188;28;20094;-70
2023/08/12 07:16:11;;;;;;;19.38;13.13;;;20.30;99.90;;;;;;5056260;28;20041;-70
2023/08/12 07:18:37;;;;;;;21.45;14.32;;;20.30;99.90;;;;;;5058220;28;20086;-71
2023/08/12 07:21:03;;;;;;;21.50;14.32;;;20.30;99.90;;;;;;5056096;28;20045;-71
2023/08/12 07:23:29;;;;;;;23.17;14.90;;;20.30;99.90;;;;;;5057326;28;20049;-71
2023/08/12 07:25:54;;;;;;;21.85;14.57;;;20.30;99.90;;;;;;5040290;28;20041;-70
2023/08/12 07:28:20;;;;;;;20.02;14.95;;;20.30;99.90;;;;;;5039554;28;20183;-71
2023/08/12 07:30:48;;;;;;;21.70;14.10;;;20.30;99.90;;;;;;5056557;28;20060;-71
2023/08/12 07:33:13;;;;;;;20.65;14.30;;;20.30;99.90;;;;;;5055877;28;20483;-70
2023/08/12 07:35:39;;;;;;;19.85;13.55;;;20.30;99.90;;;;;;5056207;28;20095;-71
2023/08/12 07:38:05;;;;;;;22.33;14.45;;;20.30;99.90;;;;;;5057086;28;20056;-70
2023/08/12 07:40:31;;;;;;;20.42;14.25;;;20.20;99.90;;;;;;5057794;28;20052;-70
2023/08/12 07:42:56;;;;;;;20.50;13.43;;;20.20;99.90;;;;;;5056504;28;20041;-71
2023/08/12 07:45:22;;;;;;;18.63;13.02;;;20.20;99.90;;;;;;5055586;28;20063;-72
2023/08/12 07:47:49;;;;;;;17.35;12.57;;;20.20;99.90;;;;;;5057629;28;20425;-71
2023/08/12 07:50:15;;;;;;;17.92;12.63;;;20.20;99.90;;;;;;5056742;28;20076;-71
2023/08/12 07:52:40;;;;;;;17.67;12.43;;;20.20;99.90;;;;;;5056761;28;20095;-72
2023/08/12 07:55:06;;;;;;;17.52;12.95;;;20.20;99.90;;;;;;5056736;28;20075;-71
2023/08/12 07:57:33;;;;;;;18.08;13.07;;;20.20;99.90;;;;;;5056855;28;20044;-71
2023/08/12 07:59:58;;;;;;;20.52;12.55;;;20.20;99.90;;;;;;5006566;28;20049;-71
2023/08/12 08:02:24;;;;;;;17.80;11.95;;;20.20;99.90;;;;;;5039257;28;20041;-72
2023/08/12 08:04:50;;;;;;;15.63;11.70;;;20.20;99.90;;;;;;5056526;28;20091;-70
2023/08/12 08:07:16;;;;;;;14.38;11.05;;;20.20;99.90;;;;;;5056360;28;20055;-70
2023/08/12 08:09:42;;;;;;;15.95;11.52;;;20.20;99.90;;;;;;5038715;28;20057;-70
2023/08/12 08:12:10;;;;;;;15.35;11.30;;;20.20;99.90;;;;;;5039072;28;20064;-72
2023/08/12 08:14:36;;;;;;;14.88;10.77;;;20.20;99.90;;;;;;5056877;28;20049;-72
2023/08/12 08:17:03;;;;;;;14.27;9.77;;;20.20;99.90;;;;;;5056331;28;20393;-72
2023/08/12 08:19:29;;;;;;;14.07;10.02;;;20.20;99.90;;;;;;5039324;28;20432;-71
2023/08/12 08:21:55;;;;;;;14.40;9.60;;;20.20;99.90;;;;;;5038288;28;20048;-72
2023/08/12 08:24:20;;;;;;;14.10;9.80;;;20.20;99.90;;;;;;5038826;28;20077;-72
2023/08/12 08:26:46;;;;;;;12.13;8.85;;;20.10;99.90;;;;;;5055590;28;20041;-73
2023/08/12 08:29:13;;;;;;;12.52;9.35;;;20.10;99.90;;;;;;5055858;28;20555;-72
2023/08/12 08:31:39;;;;;;;11.77;8.95;;;20.10;99.90;;;;;;5055837;28;20045;-70
2023/08/12 08:34:05;;;;;;;15.30;9.18;;;20.10;99.90;;;;;;5055741;28;20446;-72
2023/08/12 08:36:30;;;;;;;13.90;9.50;;;20.00;99.90;;;;;;5056198;28;20081;-72
2023/08/12 08:38:56;;;;;;;12.75;9.30;;;20.00;99.90;;;;;;5055775;28;20474;-72
2023/08/12 08:41:23;;;;;;;11.48;9.07;;;20.00;99.90;;;;;;5056113;28;20048;-75
2023/08/12 08:43:51;;;;;;;15.30;10.27;;;20.00;99.90;;;;;;5055784;28;20053;-73
2023/08/12 08:46:17;;;;;;;14.32;10.30;;;20.00;99.90;;;;;;5055704;28;20063;-74
2023/08/12 08:48:43;;;;;;;13.90;9.50;;;20.00;99.90;;;;;;5055627;28;20045;-76
2023/08/12 08:51:11;;;;;;;11.52;8.60;;;20.00;99.90;;;;;;5055302;28;20111;-73
2023/08/12 08:53:41;;;;;;;12.27;8.55;;;20.00;99.90;;;;;;5038130;28;20444;-73
2023/08/12 08:56:11;;;;;;;10.40;8.43;;;20.00;99.90;;;;;;5037447;28;20130;-72
2023/08/12 08:58:37;;;;;;;10.85;7.93;;;20.00;99.90;;;;;;5055370;28;20381;-73
2023/08/12 09:01:06;;;;;;;12.32;8.02;;;20.10;99.90;;;;;;5038319;28;20458;-73
2023/08/12 09:03:32;;;;;;;10.43;7.30;;;20.00;99.90;;;;;;5055842;28;20041;-73
2023/08/12 09:05:59;;;;;;;8.52;6.95;;;20.10;99.90;;;;;;5055232;28;20060;-74
2023/08/12 09:08:26;;;;;;;8.90;6.93;;;20.10;99.90;;;;;;5055872;28;20045;-73
2023/08/12 09:10:52;;;;;;;10.45;6.55;;;20.00;99.90;;;;;;5038464;28;20366;-73
2023/08/12 09:13:18;;;;;;;10.35;7.43;;;20.10;99.90;;;;;;5055648;28;20106;-73
2023/08/12 09:15:44;;;;;;;10.88;7.72;;;20.10;99.90;;;;;;5054298;28;20482;-72
2023/08/12 09:18:10;;;;;;;9.38;7.30;;;20.10;99.90;;;;;;5055076;28;20134;-71
2023/08/12 09:20:36;;;;;;;9.27;7.13;;;20.10;99.90;;;;;;5037244;28;20037;-73
2023/08/12 09:23:02;;;;;;;9.27;6.45;;;20.10;99.90;;;;;;5054990;28;20378;-72
2023/08/12 09:25:32;;;;;;;10.98;7.15;;;20.00;99.90;;;;;;5037303;28;20041;-72
2023/08/12 09:28:01;;;;;;;9.90;7.40;;;20.00;99.90;;;;;;5055447;28;20041;-75
2023/08/12 09:30:31;;;;;;;9.82;6.63;;;19.90;99.90;;;;;;5037098;28;20051;-72
2023/08/12 09:33:03;;;;;;;7.70;6.05;;;19.90;99.90;;;;;;5054637;28;20128;-74
2023/08/12 09:35:40;;;;;;;6.53;4.22;;;19.90;99.90;;;;;;5054298;28;20049;-73
2023/08/12 09:38:13;;;;;;;5.60;3.83;;;19.80;99.90;;;;;;5055434;28;20045;-73
2023/08/12 09:40:39;;;;;;;5.45;4.00;;;19.70;99.90;;;;;;5055453;28;20446;-72
2023/08/12 09:43:05;;;;;;;6.32;4.20;;;19.70;99.90;;;;;;5054618;28;20045;-72
2023/08/12 09:45:32;;;;;;;6.60;3.95;;;19.70;99.90;;;;;;5054639;28;20076;-72
2023/08/12 09:47:58;;;;;;;4.15;3.50;;;19.70;99.90;;;;;;5036800;28;20045;-73
2023/08/12 09:50:28;;;;;;;4.60;3.78;;;19.60;99.90;;;;;;5054609;28;20056;-73
2023/08/12 09:52:55;;;;;;;4.25;2.90;;;19.70;99.90;;;;;;5054512;28;20048;-72
2023/08/12 09:55:22;;;;;;;3.33;2.50;;;19.60;99.90;;;;;;5037331;28;20124;-72
2023/08/12 09:57:53;;;;;;;3.90;2.55;;;19.50;99.90;;;;;;5054857;28;20470;-72
2023/08/12 10:00:20;;;;;;;5.38;3.38;;;19.40;99.90;;;;;;5054731;28;20102;-71
2023/08/12 10:02:47;;;;;;;4.32;2.78;;;19.30;99.90;;;;;;5054260;28;20052;-71
2023/08/12 10:05:21;;;;;;;4.45;2.85;;;19.30;99.90;;;;;;5055161;28;20091;-73
2023/08/12 10:07:48;;;;;;;5.70;3.15;;;19.30;99.90;;;;;;5053520;28;20049;-73
2023/08/12 10:10:15;;;;;;;4.57;3.28;;;19.30;99.90;;;;;;5054630;28;20051;-72
2023/08/12 10:12:41;;;;;;;6.65;3.00;;;19.30;99.90;;;;;;5054993;28;20053;-71
2023/08/12 10:15:08;;;;;;;7.25;2.70;;;19.30;99.90;;;;;;5053998;28;20064;-72
2023/08/12 10:17:35;;;;;;;3.92;2.40;;;19.40;99.90;;;;;;5054794;28;20048;-71
2023/08/12 10:20:05;;;;;;;4.45;2.58;;;19.30;99.90;;;;;;5054405;28;20044;-72
2023/08/12 10:22:34;;;;;;;3.35;2.30;;;19.30;99.90;;;;;;5054759;28;20068;-71
2023/08/12 10:25:03;;;;;;;4.15;2.50;;;19.30;99.90;;;;;;5053835;28;20045;-71
2023/08/12 10:27:29;;;;;;;4.22;2.47;;;19.30;99.90;;;;;;5053833;28;20041;-71
2023/08/12 10:29:57;;;;;;;3.80;2.50;;;19.20;99.90;;;;;;5053891;28;20049;-72
2023/08/12 10:32:28;;;;;;;4.35;3.03;;;19.30;99.90;;;;;;5036103;28;20048;-71
2023/08/12 10:34:57;;;;;;;4.15;2.50;;;19.30;99.90;;;;;;5054348;28;20445;-71
2023/08/12 10:37:24;;;;;;;4.10;2.15;;;19.40;99.90;;;;;;5053749;28;20041;-72
2023/08/12 10:39:52;;;;;;;3.22;1.70;;;19.40;99.90;;;;;;5053510;28;20045;-73
2023/08/12 10:42:43;;;;;;;3.05;1.92;;;19.40;99.90;;;;;;5054206;28;20056;-71
2023/08/12 10:45:11;;;;;;;2.85;1.83;;;19.40;99.90;;;;;;5053708;28;20477;-73
2023/08/12 10:47:48;;;;;;;2.75;1.90;;;19.30;99.90;;;;;;5052523;28;20037;-72
2023/08/12 10:50:19;;;;;;;2.67;1.50;;;19.40;99.90;;;;;;5054135;28;20047;-72
2023/08/12 10:52:45;;;;;;;2.53;1.48;;;19.40;99.90;;;;;;5054140;28;20045;-71
2023/08/12 10:55:25;;;;;;;4.60;1.70;;;19.40;99.90;;;;;;5053305;28;20056;-70
2023/08/12 10:57:53;;;;;;;2.95;1.67;;;19.40;99.90;;;;;;5054118;28;20122;-70
2023/08/12 11:00:22;;;;;;;3.60;1.30;;;19.40;99.90;;;;;;5052956;28;20565;-70
2023/08/12 11:02:56;;;;;;;1.88;1.15;;;19.60;99.90;;;;;;5053907;28;20049;-70
2023/08/12 11:05:23;;;;;;;2.72;1.40;;;19.60;99.90;;;;;;5036610;28;20059;-71
2023/08/12 11:07:56;;;;;;;1.92;1.20;;;19.60;99.90;;;;;;5053354;28;20504;-72
2023/08/12 11:10:27;;;;;;;1.90;1.10;;;19.60;99.90;;;;;;5053307;28;20044;-72
2023/08/12 11:12:56;;;;;;;2.30;0.95;;;19.60;99.90;;;;;;5054100;28;20458;-70
2023/08/12 11:15:41;;;;;;;2.15;1.23;;;19.70;99.90;;;;;;5053310;28;20049;-71
2023/08/12 11:18:13;;;;;;;2.30;1.30;;;19.80;99.90;;;;;;5053280;28;20088;-71
2023/08/12 11:20:39;;;;;;;2.10;1.38;;;20.00;99.90;;;;;;5053624;28;20103;-72
2023/08/12 11:23:07;;;;;;;2.75;1.50;;;20.10;99.90;;;;;;5053717;28;20377;-71
2023/08/12 11:25:34;;;;;;;2.15;1.25;;;20.20;99.90;;;;;;5053140;28;20045;-72
2023/08/12 11:28:00;;;;;;;1.90;1.00;;;20.30;99.90;;;;;;5053741;28;20052;-73
2023/08/12 11:30:26;;;;;;;3.15;1.20;;;20.40;99.90;;;;;;5053216;28;20045;-73
2023/08/12 11:32:53;;;;;;;2.10;1.00;;;20.40;99.90;;;;;;5053177;28;20142;-73
2023/08/12 11:35:21;;;;;;;2.45;1.08;;;20.50;99.90;;;;;;5052866;28;20049;-73
2023/08/12 11:37:49;;;;;;;1.80;1.00;;;20.50;99.90;;;;;;5035333;28;20145;-72
2023/08/12 11:40:17;;;;;;;1.05;0.60;;;20.50;99.90;;;;;;5051542;28;20045;-73
2023/08/12 11:42:45;;;;;;;1.85;0.98;;;20.40;99.90;;;;;;5052699;28;20055;-72
2023/08/12 11:45:12;;;;;;;1.45;0.80;;;20.40;99.90;;;;;;5035148;28;20044;-71
2023/08/12 11:47:40;;;;;;;2.10;0.90;;;20.30;99.90;;;;;;5035292;28;20084;-70
2023/08/12 11:50:08;;;;;;;1.70;0.80;;;20.30;99.90;;;;;;5051757;28;20060;-70
2023/08/12 11:52:35;;;;;;;1.65;0.80;;;20.30;99.90;;;;;;5052806;28;20045;-71
2023/08/12 11:55:01;;;;;;;1.33;0.70;;;20.30;99.90;;;;;;5052470;28;20481;-70
2023/08/12 11:57:28;;;;;;;1.40;0.80;;;20.30;99.90;;;;;;5053157;28;20053;-70
2023/08/12 12:00:05;;;;;;;1.50;0.80;;;20.30;99.90;;;;;;5056957;28;20351;-70
2023/08/12 12:02:30;;;;;;;1.33;0.80;;;20.40;99.90;;;;;;5038967;28;20139;-71
2023/08/12 12:04:56;;;;;;;1.60;0.80;;;20.40;99.90;;;;;;5056009;28;20128;-69
2023/08/12 12:07:30;;;;;;;1.40;0.80;;;20.40;99.90;;;;;;5056044;28;20106;-69
2023/08/12 12:09:56;;;;;;;1.02;0.60;;;20.40;99.90;;;;;;5056841;28;20044;-70
2023/08/12 12:12:24;;;;;;;2.35;0.70;;;20.50;99.90;;;;;;5039440;28;20140;-70
2023/08/12 12:14:54;;;;;;;1.02;0.70;;;20.60;99.90;;;;;;5056038;28;20048;-70
2023/08/12 12:17:23;;;;;;;1.38;0.60;;;20.70;99.90;;;;;;5056335;28;20060;-70
2023/08/12 12:19:57;;;;;;;1.40;0.70;;;20.80;99.90;;;;;;5056074;28;20422;-70
2023/08/12 12:22:28;;;;;;;1.30;0.60;;;20.90;99.90;;;;;;5055846;28;20512;-70
2023/08/12 12:24:54;;;;;;;1.40;0.80;;;20.90;99.90;;;;;;5038454;28;20562;-71
2023/08/12 12:27:19;;;;;;;2.40;0.90;;;20.80;99.90;;;;;;5055978;28;20128;-71
2023/08/12 12:29:45;;;;;;;1.50;0.93;;;20.80;99.90;;;;;;5056244;28;20478;-71
2023/08/12 12:32:11;;;;;;;1.38;0.70;;;20.60;99.90;;;;;;5055649;28;20049;-71
2023/08/12 12:34:36;;;;;;;1.30;0.70;;;20.60;99.90;;;;;;5056435;28;20045;-70
2023/08/12 12:37:02;;;;;;;1.50;0.90;;;20.60;99.90;;;;;;5056501;28;20428;-73
2023/08/12 12:39:28;;;;;;;1.67;0.90;;;20.50;99.90;;;;;;5055789;28;20045;-70